Time;durP1;ratioP1;P1;durP2;ratioP2;P2;SDS_P1;SDS_P2;PMS_P1;PMS_P2;Temp;Humidity;BMP_temperature;BMP_pressure;BME280_temperature;BME280_humidity;BME280_pressure;Samples;Min_cycle;Max_cycle;Signal;HPM_P1;HPM_P2
2024/01/05 00:00:46;;;;;;;1.80;1.30;;;;;;;7.34;77.63;97142.22;108731;1264;59238;-27
2024/01/05 00:03:13;;;;;;;1.80;1.00;;;;;;;7.22;78.39;97145.28;108722;1264;58720;-27
2024/01/05 00:05:41;;;;;;;2.90;1.20;;;;;;;7.38;78.23;97144.61;108733;1264;73063;-27
2024/01/05 00:08:08;;;;;;;1.80;1.40;;;;;;;7.80;76.52;97143.05;108739;1264;74307;-27
2024/01/05 00:10:36;;;;;;;1.50;1.10;;;;;;;7.80;75.95;97144.93;108715;1265;71401;-27
2024/01/05 00:13:03;;;;;;;1.60;1.20;;;;;;;7.61;76.32;97145.11;108693;1266;58861;-27
2024/01/05 00:15:31;;;;;;;1.60;1.30;;;;;;;7.41;77.24;97149.42;108699;1263;60068;-27
2024/01/05 00:17:59;;;;;;;2.60;1.50;;;;;;;7.16;78.12;97145.67;108695;1263;71877;-27
2024/01/05 00:20:27;;;;;;;2.10;0.80;;;;;;;7.02;78.86;97146.85;108742;1263;74466;-28
2024/01/05 00:22:54;;;;;;;1.30;1.00;;;;;;;7.50;77.08;97150.67;108695;1264;72642;-27
2024/01/05 00:25:22;;;;;;;1.90;1.00;;;;;;;7.61;75.95;97150.96;108650;1264;58968;-27
2024/01/05 00:27:52;;;;;;;1.30;1.00;;;;;;;7.62;75.73;97153.29;108710;1264;60025;-27
2024/01/05 00:30:20;;;;;;;3.20;1.40;;;;;;;7.37;76.18;97157.11;108746;1264;73016;-27
2024/01/05 00:32:48;;;;;;;1.30;0.90;;;;;;;7.10;76.93;97157.15;108856;1260;74289;-27
2024/01/05 00:35:15;;;;;;;1.90;1.00;;;;;;;6.91;77.09;97152.41;108894;1262;71749;-27
2024/01/05 00:37:43;;;;;;;2.10;1.10;;;;;;;7.25;76.26;97163.48;108893;1260;58940;-27
2024/01/05 00:40:11;;;;;;;2.40;1.40;;;;;;;7.54;74.52;97167.73;108908;1261;58734;-28
2024/01/05 00:42:38;;;;;;;2.20;1.10;;;;;;;7.51;74.19;97175.97;108942;1260;70877;-27
2024/01/05 00:45:06;;;;;;;1.20;0.90;;;;;;;7.37;74.38;97174.88;108875;1260;74317;-28
2024/01/05 00:47:34;;;;;;;1.70;1.00;;;;;;;7.24;74.72;97172.20;108846;1261;73116;-28
2024/01/05 00:50:03;;;;;;;3.40;1.10;;;;;;;7.10;75.17;97175.27;108876;1261;58858;-28
2024/01/05 00:52:31;;;;;;;1.30;0.70;;;;;;;6.91;76.04;97171.52;108813;1262;58757;-28
2024/01/05 00:54:58;;;;;;;1.30;0.90;;;;;;;7.36;74.93;97176.21;108830;1263;71867;-27
2024/01/05 00:57:26;;;;;;;1.80;0.90;;;;;;;7.76;73.26;97178.02;108813;1260;74321;-28
2024/01/05 00:59:54;;;;;;;1.90;1.00;;;;;;;7.77;72.96;97177.01;108889;1261;72672;-27
2024/01/05 01:02:21;;;;;;;1.50;0.90;;;;;;;7.65;73.31;97172.81;108879;1262;60191;-28
2024/01/05 01:04:48;;;;;;;2.70;1.20;;;;;;;7.39;73.80;97170.58;108881;1261;58788;-28
2024/01/05 01:07:16;;;;;;;2.80;0.90;;;;;;;7.15;74.51;97174.81;108845;1260;73510;-27
2024/01/05 01:09:43;;;;;;;2.40;1.10;;;;;;;6.89;75.58;97169.72;108862;1260;74305;-28
2024/01/05 01:12:11;;;;;;;1.80;1.30;;;;;;;7.10;75.65;97178.38;108805;1262;72711;-27
2024/01/05 01:14:39;;;;;;;2.50;1.40;;;;;;;7.48;74.37;97179.19;108868;1260;60200;-28
2024/01/05 01:17:06;;;;;;;1.30;0.80;;;;;;;7.46;74.16;97183.00;108843;1260;58716;-28
2024/01/05 01:19:33;;;;;;;1.20;1.00;;;;;;;7.26;74.77;97181.35;109095;1256;71735;-28
2024/01/05 01:22:01;;;;;;;2.00;1.20;;;;;;;7.10;75.42;97182.98;109076;1256;72892;-27
2024/01/05 01:24:29;;;;;;;2.90;1.40;;;;;;;6.90;76.25;97178.16;109065;1256;71404;-27
2024/01/05 01:26:56;;;;;;;1.50;1.00;;;;;;;6.76;77.22;97180.89;109069;1256;61644;-28
2024/01/05 01:29:25;;;;;;;2.00;0.90;;;;;;;7.21;76.12;97176.10;109121;1256;58758;-27
2024/01/05 01:31:52;;;;;;;1.10;0.70;;;;;;;7.60;74.71;97182.67;109103;1256;71405;-27
2024/01/05 01:34:19;;;;;;;2.40;1.00;;;;;;;7.61;74.07;97177.74;109039;1260;74277;-28
2024/01/05 01:36:47;;;;;;;1.50;1.00;;;;;;;7.38;74.84;97177.27;109042;1256;71390;-28
2024/01/05 01:39:15;;;;;;;4.00;1.20;;;;;;;7.26;75.24;97180.65;109018;1257;60047;-28
2024/01/05 01:41:43;;;;;;;2.30;1.40;;;;;;;7.06;75.71;97181.17;109186;1256;60102;-28
2024/01/05 01:44:10;;;;;;;3.10;1.10;;;;;;;6.94;76.50;97172.83;109066;1257;73091;-28
2024/01/05 01:46:38;;;;;;;2.20;1.00;;;;;;;7.40;74.98;97174.92;109097;1257;74370;-27
2024/01/05 01:49:05;;;;;;;1.50;0.90;;;;;;;7.45;73.90;97180.13;109072;1259;72657;-28
2024/01/05 01:51:33;;;;;;;1.50;0.80;;;;;;;7.12;73.60;97169.50;109010;1259;58873;-28
2024/01/05 01:54:02;;;;;;;0.60;0.50;;;;;;;6.97;74.15;97174.98;108942;1257;60024;-28
2024/01/05 01:56:31;;;;;;;1.30;0.70;;;;;;;6.75;73.52;97170.95;109054;1257;73098;-28
2024/01/05 01:58:58;;;;;;;2.10;0.70;;;;;;;6.56;72.82;97172.99;109026;1257;74336;-27
2024/01/05 02:01:26;;;;;;;0.50;0.40;;;;;;;6.42;71.70;97171.48;109007;1257;71478;-27
2024/01/05 02:03:53;;;;;;;0.60;0.40;;;;;;;6.68;70.24;97172.52;109023;1257;60102;-28
2024/01/05 02:06:21;;;;;;;0.50;0.50;;;;;;;6.94;69.43;97187.80;109013;1265;58770;-27
2024/01/05 02:08:48;;;;;;;0.50;0.40;;;;;;;6.70;69.95;97184.86;109060;1257;71799;-28
2024/01/05 02:11:16;;;;;;;0.80;0.60;;;;;;;6.56;70.31;97191.38;109017;1257;74356;-27
2024/01/05 02:13:43;;;;;;;0.80;0.60;;;;;;;6.38;71.15;97188.80;109089;1258;72631;-27
2024/01/05 02:16:11;;;;;;;0.80;0.60;;;;;;;6.18;72.43;97195.96;109066;1259;59304;-27
2024/01/05 02:18:38;;;;;;;1.30;0.50;;;;;;;5.98;73.53;97197.77;109124;1257;58858;-27
2024/01/05 02:21:05;;;;;;;0.70;0.40;;;;;;;6.20;73.54;97203.86;109098;1260;71929;-27
2024/01/05 02:23:33;;;;;;;1.70;0.60;;;;;;;6.29;74.14;97205.58;109037;1257;73065;-27
2024/01/05 02:26:01;;;;;;;1.40;0.60;;;;;;;5.96;74.00;97191.59;108986;1257;71145;-27
2024/01/05 02:28:28;;;;;;;0.90;0.60;;;;;;;5.54;75.62;97209.11;109061;1257;58879;-27
2024/01/05 02:30:56;;;;;;;1.20;0.70;;;;;;;5.21;78.24;97222.01;109072;1259;58733;-27
2024/01/05 02:33:24;;;;;;;0.50;0.40;;;;;;;5.00;79.01;97222.02;109049;1257;71931;-27
2024/01/05 02:35:52;;;;;;;3.30;0.90;;;;;;;4.98;79.05;97241.59;109040;1257;74340;-27
2024/01/05 02:38:20;;;;;;;0.70;0.50;;;;;;;5.22;77.47;97246.20;109023;1258;71674;-27
2024/01/05 02:40:47;;;;;;;0.80;0.40;;;;;;;5.21;76.56;97241.13;109028;1259;59336;-27
2024/01/05 02:43:14;;;;;;;2.30;0.50;;;;;;;5.04;76.95;97252.23;109082;1260;58730;-27
2024/01/05 02:45:42;;;;;;;0.70;0.50;;;;;;;4.53;76.89;97238.58;109030;1259;73053;-26
2024/01/05 02:48:09;;;;;;;0.90;0.40;;;;;;;4.35;76.61;97228.19;109031;1259;74360;-27
2024/01/05 02:50:37;;;;;;;0.40;0.40;;;;;;;4.33;76.66;97254.82;108960;1259;72693;-27
2024/01/05 02:53:05;;;;;;;0.40;0.40;;;;;;;4.45;76.21;97253.66;108952;1260;59291;-26
2024/01/05 02:55:32;;;;;;;0.40;0.40;;;;;;;4.74;74.48;97263.58;108987;1259;59151;-26
2024/01/05 02:58:02;;;;;;;0.70;0.40;;;;;;;4.78;73.91;97274.93;108875;1261;73047;-27
2024/01/05 03:00:29;;;;;;;0.90;0.40;;;;;;;4.40;74.21;97264.06;108971;1259;73532;-27
2024/01/05 03:03:22;;;;;;;0.30;0.30;;;;;;;4.12;75.12;97271.36;108893;1259;72630;-27
2024/01/05 03:05:49;;;;;;;0.30;0.30;;;;;;;3.91;75.22;97274.14;108988;1259;59323;-27
2024/01/05 03:08:17;;;;;;;0.50;0.40;;;;;;;3.84;75.10;97269.02;109002;1259;60029;-27
2024/01/05 03:10:44;;;;;;;0.30;0.30;;;;;;;4.07;74.00;97265.73;109016;1259;73865;-27
2024/01/05 03:13:12;;;;;;;0.40;0.40;;;;;;;4.14;73.56;97272.70;108990;1259;73026;-27
2024/01/05 03:15:39;;;;;;;0.40;0.30;;;;;;;4.09;73.37;97274.02;108989;1259;72738;-27
2024/01/05 03:18:06;;;;;;;1.10;0.20;;;;;;;3.91;73.78;97270.83;108968;1259;59259;-28
2024/01/05 03:20:34;;;;;;;0.20;0.20;;;;;;;3.85;73.96;97275.23;108946;1259;60077;-27
2024/01/05 03:23:02;;;;;;;0.20;0.20;;;;;;;3.63;75.07;97276.04;108910;1259;73846;-27
2024/01/05 03:25:29;;;;;;;0.60;0.20;;;;;;;3.83;74.77;97285.73;108960;1259;73111;-27
2024/01/05 03:27:56;;;;;;;0.30;0.30;;;;;;;4.16;73.30;97286.45;108963;1259;72634;-28
2024/01/05 03:30:24;;;;;;;0.30;0.20;;;;;;;4.31;72.66;97294.39;108919;1259;58778;-28
2024/01/05 03:32:51;;;;;;;0.30;0.30;;;;;;;4.06;73.48;97290.59;109012;1259;58813;-27
2024/01/05 03:35:19;;;;;;;0.60;0.30;;;;;;;3.80;74.93;97301.95;108936;1259;73862;-27
2024/01/05 03:37:48;;;;;;;0.40;0.30;;;;;;;3.65;75.42;97299.88;108998;1259;74528;-27
2024/01/05 03:40:15;;;;;;;0.30;0.30;;;;;;;3.57;76.35;97302.26;108911;1259;72690;-27
2024/01/05 03:42:43;;;;;;;0.30;0.30;;;;;;;3.97;75.50;97307.09;108983;1261;60069;-27
2024/01/05 03:45:10;;;;;;;0.30;0.30;;;;;;;4.20;74.73;97312.91;108995;1260;60016;-27
2024/01/05 03:47:38;;;;;;;0.40;0.40;;;;;;;4.23;74.60;97315.23;108911;1260;72626;-27
2024/01/05 03:50:06;;;;;;;0.40;0.40;;;;;;;3.96;75.15;97296.20;108925;1260;73200;-27
2024/01/05 03:52:33;;;;;;;0.40;0.40;;;;;;;3.82;75.74;97310.55;108911;1261;72661;-27
2024/01/05 03:55:01;;;;;;;0.40;0.40;;;;;;;3.69;76.86;97322.75;108920;1260;59319;-28
2024/01/05 03:57:30;;;;;;;0.40;0.40;;;;;;;3.96;75.99;97323.50;109005;1259;60106;-27
2024/01/05 03:59:57;;;;;;;0.90;0.60;;;;;;;4.26;74.41;97328.57;109002;1259;72559;-28
2024/01/05 04:02:25;;;;;;;0.60;0.60;;;;;;;4.11;74.33;97333.79;109023;1259;74341;-28
2024/01/05 04:04:52;;;;;;;1.40;0.70;;;;;;;3.96;74.69;97336.19;108944;1260;72657;-27
2024/01/05 04:07:20;;;;;;;0.70;0.60;;;;;;;3.66;75.80;97338.09;108914;1259;59229;-28
2024/01/05 04:09:49;;;;;;;0.60;0.60;;;;;;;3.64;76.22;97348.18;108949;1260;60030;-28
2024/01/05 04:12:17;;;;;;;0.80;0.60;;;;;;;3.81;75.98;97353.52;109020;1259;73863;-28
2024/01/05 04:14:45;;;;;;;0.90;0.70;;;;;;;4.24;74.31;97358.46;108977;1259;74343;-28
2024/01/05 04:17:12;;;;;;;1.40;0.80;;;;;;;4.27;73.31;97352.05;109026;1260;72682;-28
2024/01/05 04:19:40;;;;;;;2.70;0.80;;;;;;;4.03;74.60;97358.59;108945;1261;58796;-27
2024/01/05 04:22:08;;;;;;;1.90;1.10;;;;;;;3.94;75.00;97357.11;108967;1259;60025;-28
2024/01/05 04:24:36;;;;;;;1.80;0.90;;;;;;;3.78;75.53;97349.13;109003;1263;74289;-28
2024/01/05 04:27:03;;;;;;;1.20;0.60;;;;;;;3.85;75.67;97365.21;108917;1259;73056;-28
2024/01/05 04:29:31;;;;;;;0.70;0.70;;;;;;;4.28;74.47;97373.41;108997;1260;72745;-28
2024/01/05 04:31:59;;;;;;;1.30;0.90;;;;;;;4.41;73.83;97376.30;108968;1261;60080;-27
2024/01/05 04:34:26;;;;;;;1.30;0.90;;;;;;;4.35;74.09;97382.50;109002;1259;59852;-27
2024/01/05 04:36:54;;;;;;;1.30;0.90;;;;;;;4.18;74.61;97382.14;109007;1260;73572;-28
2024/01/05 04:39:21;;;;;;;1.00;0.80;;;;;;;3.89;75.23;97376.05;108952;1259;74278;-27
2024/01/05 04:41:49;;;;;;;1.30;1.00;;;;;;;3.73;75.73;97374.78;108975;1260;72666;-27
2024/01/05 04:44:16;;;;;;;1.00;0.70;;;;;;;3.88;75.19;97373.55;108838;1260;58849;-27
2024/01/05 04:46:44;;;;;;;0.90;0.80;;;;;;;4.24;74.04;97394.73;108916;1260;58802;-27
2024/01/05 04:49:12;;;;;;;2.30;0.80;;;;;;;4.19;74.13;97398.39;108971;1260;72535;-28
2024/01/05 04:51:40;;;;;;;0.90;0.80;;;;;;;4.11;74.47;97409.36;108855;1266;73164;-27
2024/01/05 04:54:10;;;;;;;1.70;1.30;;;;;;;3.79;75.49;97403.61;108958;1259;72869;-27
2024/01/05 04:56:38;;;;;;;1.30;0.90;;;;;;;3.65;76.27;97400.08;108938;1261;58830;-27
2024/01/05 04:59:05;;;;;;;2.00;1.20;;;;;;;3.94;75.16;97408.27;108897;1261;58802;-27
2024/01/05 05:01:33;;;;;;;1.50;1.00;;;;;;;4.16;74.15;97419.08;108974;1260;72868;-27
2024/01/05 05:04:01;;;;;;;0.80;0.80;;;;;;;3.95;74.71;97419.06;108881;1261;74319;-28
2024/01/05 05:06:28;;;;;;;1.20;0.80;;;;;;;3.96;75.35;97436.23;108951;1260;72818;-27
2024/01/05 05:08:56;;;;;;;0.90;0.70;;;;;;;3.87;75.70;97434.29;108947;1260;58906;-27
2024/01/05 05:11:24;;;;;;;1.10;1.00;;;;;;;3.69;76.50;97439.66;108894;1259;60010;-27
2024/01/05 05:13:51;;;;;;;1.10;0.80;;;;;;;3.79;76.39;97443.64;108874;1259;73900;-27
2024/01/05 05:16:19;;;;;;;1.80;1.00;;;;;;;4.19;74.71;97441.99;108871;1260;74332;-28
2024/01/05 05:18:48;;;;;;;1.10;0.90;;;;;;;4.01;75.63;97461.12;108925;1260;72688;-27
2024/01/05 05:21:16;;;;;;;1.30;0.90;;;;;;;3.86;76.23;97466.60;108870;1260;59300;-27
2024/01/05 05:23:43;;;;;;;1.10;1.00;;;;;;;3.74;76.88;97460.52;108925;1259;60008;-27
2024/01/05 05:26:11;;;;;;;1.00;0.70;;;;;;;3.50;78.32;97469.46;108962;1259;73862;-27
2024/01/05 05:28:39;;;;;;;2.40;1.20;;;;;;;3.87;77.15;97471.70;108875;1259;74328;-27
2024/01/05 05:31:06;;;;;;;1.10;0.70;;;;;;;3.94;76.82;97487.45;108841;1260;73140;-27
2024/01/05 05:33:34;;;;;;;1.90;1.10;;;;;;;3.89;76.60;97492.65;108911;1260;60075;-27
2024/01/05 05:36:02;;;;;;;1.20;1.10;;;;;;;3.75;76.95;97484.13;108893;1260;59619;-27
2024/01/05 05:38:29;;;;;;;2.90;1.00;;;;;;;3.56;77.97;97505.67;108973;1260;73881;-27
2024/01/05 05:40:57;;;;;;;1.20;1.10;;;;;;;3.80;77.68;97504.98;108928;1259;74302;-27
2024/01/05 05:43:24;;;;;;;1.30;0.80;;;;;;;4.06;76.29;97500.96;108948;1259;71396;-28
2024/01/05 05:45:54;;;;;;;1.00;0.80;;;;;;;3.93;76.26;97506.56;108812;1266;60068;-27
2024/01/05 05:48:25;;;;;;;1.70;1.00;;;;;;;3.78;76.68;97507.42;108768;1260;58809;-27
2024/01/05 05:50:54;;;;;;;1.10;0.90;;;;;;;3.59;78.08;97529.60;108907;1260;71919;-27
2024/01/05 05:53:23;;;;;;;1.00;0.80;;;;;;;3.33;79.23;97521.48;108771;1260;74327;-27
2024/01/05 05:55:54;;;;;;;1.70;1.40;;;;;;;3.49;78.26;97525.61;108754;1261;72795;-28
2024/01/05 05:58:23;;;;;;;1.90;1.20;;;;;;;3.83;76.55;97531.02;108779;1261;58865;-27
2024/01/05 06:00:54;;;;;;;1.70;1.00;;;;;;;3.76;76.85;97542.04;108770;1260;58675;-27
2024/01/05 06:03:24;;;;;;;1.50;1.30;;;;;;;3.60;77.39;97559.06;108820;1260;73874;-27
2024/01/05 06:05:55;;;;;;;3.50;1.20;;;;;;;3.35;77.96;97546.90;108764;1260;74436;-27
2024/01/05 06:08:24;;;;;;;1.90;1.00;;;;;;;3.34;77.93;97551.05;108784;1263;71535;-28
2024/01/05 06:10:55;;;;;;;1.20;1.00;;;;;;;3.64;74.69;97552.11;108701;1261;62008;-27
2024/01/05 06:13:24;;;;;;;1.60;1.30;;;;;;;3.61;73.66;97548.51;108788;1260;60125;-28
2024/01/05 06:15:56;;;;;;;1.30;1.10;;;;;;;3.33;73.98;97542.27;108724;1260;73887;-28
2024/01/05 06:18:26;;;;;;;1.20;1.00;;;;;;;3.20;74.14;97543.03;108776;1260;74334;-27
2024/01/05 06:20:56;;;;;;;1.70;1.00;;;;;;;2.96;75.14;97550.66;108757;1260;71815;-28
2024/01/05 06:23:26;;;;;;;2.70;1.10;;;;;;;2.77;75.99;97562.80;108728;1260;59284;-28
2024/01/05 06:25:57;;;;;;;1.20;0.70;;;;;;;2.97;75.43;97549.34;108776;1260;60019;-27
2024/01/05 06:28:28;;;;;;;1.00;0.80;;;;;;;3.15;74.61;97581.47;108720;1260;72697;-27
2024/01/05 06:30:58;;;;;;;1.50;1.20;;;;;;;3.06;75.28;97578.73;108859;1260;72218;-27
2024/01/05 06:33:28;;;;;;;1.60;1.30;;;;;;;2.86;75.72;97580.30;108707;1260;72720;-28
2024/01/05 06:35:58;;;;;;;1.00;0.90;;;;;;;2.55;76.54;97597.11;108782;1262;58900;-27
2024/01/05 06:38:28;;;;;;;1.70;1.20;;;;;;;2.56;77.05;97598.27;108773;1260;60028;-27
2024/01/05 06:40:58;;;;;;;2.50;1.00;;;;;;;2.74;76.39;97598.30;108790;1261;73885;-27
2024/01/05 06:43:28;;;;;;;1.90;1.40;;;;;;;3.02;75.28;97609.70;108773;1260;73203;-27
2024/01/05 06:45:58;;;;;;;2.00;1.40;;;;;;;3.01;74.82;97597.27;108707;1260;72713;-28
2024/01/05 06:48:27;;;;;;;1.50;1.30;;;;;;;2.81;75.62;97625.42;108790;1263;58866;-28
2024/01/05 06:50:56;;;;;;;2.20;2.00;;;;;;;2.54;76.53;97616.73;108793;1260;58802;-27
2024/01/05 06:53:28;;;;;;;1.40;1.30;;;;;;;2.21;76.92;97608.77;108771;1260;72549;-27
2024/01/05 06:55:59;;;;;;;2.00;1.60;;;;;;;2.46;76.65;97623.61;108814;1260;74325;-27
2024/01/05 06:58:28;;;;;;;3.50;2.00;;;;;;;2.75;74.87;97618.14;108751;1260;72840;-28
2024/01/05 07:01:01;;;;;;;3.90;2.20;;;;;;;2.50;75.20;97627.80;108830;1261;60108;-27
2024/01/05 07:03:31;;;;;;;2.40;2.00;;;;;;;2.37;75.41;97632.98;108770;1260;60078;-27
2024/01/05 07:06:02;;;;;;;3.10;2.20;;;;;;;2.12;76.49;97631.98;108766;1260;73855;-27
2024/01/05 07:08:31;;;;;;;2.50;2.20;;;;;;;1.85;77.48;97637.73;108842;1260;74300;-27
2024/01/05 07:11:01;;;;;;;2.70;1.90;;;;;;;2.10;76.79;97646.48;108743;1260;71378;-27
2024/01/05 07:13:31;;;;;;;2.70;2.30;;;;;;;2.52;75.17;97663.63;108682;1262;60128;-28
2024/01/05 07:16:01;;;;;;;3.10;2.30;;;;;;;2.35;75.18;97657.27;108771;1260;60122;-27
2024/01/05 07:18:31;;;;;;;3.50;2.40;;;;;;;2.29;75.61;97672.59;108796;1260;73828;-27
2024/01/05 07:21:03;;;;;;;3.80;2.70;;;;;;;2.08;76.22;97679.50;108795;1260;74290;-27
2024/01/05 07:23:33;;;;;;;4.60;3.20;;;;;;;1.89;76.77;97695.67;108832;1260;72644;-27
2024/01/05 07:26:03;;;;;;;3.60;3.00;;;;;;;1.80;77.83;97700.27;108734;1264;59606;-27
2024/01/05 07:28:32;;;;;;;2.60;2.10;;;;;;;1.96;76.33;97682.90;108776;1260;62299;-27
2024/01/05 07:31:06;;;;;;;5.30;3.00;;;;;;;1.86;77.17;97714.88;108766;1260;73775;-27
2024/01/05 07:33:37;;;;;;;6.70;4.60;;;;;;;1.52;78.01;97714.70;108809;1260;72191;-28
2024/01/05 07:36:06;;;;;;;6.00;4.20;;;;;;;1.08;79.31;97702.98;108776;1260;72716;-28
2024/01/05 07:38:37;;;;;;;7.20;4.70;;;;;;;1.03;79.48;97723.34;108782;1260;60893;-27
2024/01/05 07:41:07;;;;;;;5.00;3.60;;;;;;;1.40;78.45;97737.02;108784;1260;61250;-27
2024/01/05 07:51:10;;;;;;;5.90;5.20;;;;;;;1.14;78.87;97771.64;102688;1295;599681;-26
2024/01/05 07:53:38;;;;;;;9.50;4.90;;;;;;;1.05;78.95;97774.98;104912;1270;61262;-28
2024/01/05 07:56:07;;;;;;;5.60;4.20;;;;;;;1.26;77.88;97795.58;104853;1267;61049;-28
2024/01/05 08:23:13;;;;;;;10.80;7.10;;;;;;;-0.94;90.98;97887.55;103523;1281;615469;-27
2024/01/05 08:25:44;;;;;;;8.40;6.10;;;;;;;-0.01;86.63;97901.29;105145;1271;61135;-27
2024/01/05 08:28:10;;;;;;;9.10;6.10;;;;;;;0.36;84.16;97927.02;104786;1283;61956;-27
2024/01/05 08:30:39;;;;;;;10.50;8.10;;;;;;;0.37;83.68;97920.98;105584;1257;72262;-27
2024/01/05 08:33:06;;;;;;;12.00;7.90;;;;;;;-0.10;84.63;97897.36;105588;1257;74351;-27
2024/01/05 08:35:34;;;;;;;11.30;8.30;;;;;;;-0.50;85.62;97922.73;105247;1260;451524;-27
2024/01/05 08:38:04;;;;;;;10.40;7.20;;;;;;;-0.36;84.54;97942.96;105650;1260;61137;-27
2024/01/05 08:40:31;;;;;;;12.00;8.00;;;;;;;-0.40;82.66;97932.39;105635;1255;61205;-27
2024/01/05 08:42:58;;;;;;;8.80;6.40;;;;;;;-0.49;81.80;97955.27;105674;1260;72096;-27
2024/01/05 08:45:27;;;;;;;8.40;6.00;;;;;;;-0.93;82.05;97947.50;105619;1260;74267;-27
2024/01/05 08:47:53;;;;;;;8.50;5.40;;;;;;;-0.99;82.51;97967.73;105443;1257;72788;-27
2024/01/05 08:50:20;;;;;;;7.80;5.60;;;;;;;-0.58;81.45;97971.95;105626;1258;61045;-27
2024/01/05 08:52:48;;;;;;;9.00;4.70;;;;;;;-0.75;80.92;97964.48;105602;1260;61463;-28
2024/01/05 08:55:16;;;;;;;7.10;4.60;;;;;;;-0.98;81.95;97980.81;105571;1257;73024;-27
2024/01/05 08:57:44;;;;;;;8.40;5.00;;;;;;;-0.95;83.15;97999.77;105619;1260;74533;-27
2024/01/05 09:00:11;;;;;;;6.70;4.90;;;;;;;-1.05;83.55;97995.46;105617;1258;72636;-27
2024/01/05 09:02:39;;;;;;;6.20;4.40;;;;;;;-1.04;82.76;97994.57;105663;1258;61038;-27
2024/01/05 09:05:07;;;;;;;5.60;4.00;;;;;;;-0.90;82.15;98017.73;105612;1261;61281;-27
2024/01/05 09:07:34;;;;;;;6.20;4.00;;;;;;;-0.85;82.06;98021.92;105651;1257;72029;-27
2024/01/05 09:10:08;;;;;;;6.40;4.20;;;;;;;-0.94;83.01;98035.27;105520;1257;74746;-27
2024/01/05 09:12:35;;;;;;;6.80;4.30;;;;;;;-1.09;83.91;98041.64;105261;1258;72561;-27
2024/01/05 09:15:02;;;;;;;3.90;3.10;;;;;;;-0.68;83.15;98049.11;105284;1257;61112;-26
2024/01/05 09:17:31;;;;;;;4.30;3.20;;;;;;;-0.43;81.64;98041.20;105621;1260;61112;-27
2024/01/05 09:19:57;;;;;;;4.70;3.40;;;;;;;-0.90;82.33;98042.90;105558;1260;73058;-30
2024/01/05 09:22:24;;;;;;;5.60;3.80;;;;;;;-1.15;82.77;98029.85;105259;1258;74226;-28
2024/01/05 09:24:52;;;;;;;4.90;3.70;;;;;;;-1.29;83.46;98040.44;105571;1262;71147;-26
2024/01/05 09:27:19;;;;;;;4.00;2.90;;;;;;;-1.15;82.89;98049.77;105538;1263;61068;-27
2024/01/05 09:29:46;;;;;;;5.30;3.50;;;;;;;-0.96;80.69;98054.98;105582;1261;61083;-27
2024/01/05 09:32:12;;;;;;;4.00;2.50;;;;;;;-1.22;80.65;98049.48;105391;1258;73013;-27
2024/01/05 09:34:41;;;;;;;3.40;2.60;;;;;;;-1.14;81.93;98065.79;105492;1257;75237;-27
2024/01/05 09:37:10;;;;;;;3.10;2.50;;;;;;;-1.41;81.97;98074.88;105422;1258;72755;-28
2024/01/05 09:39:36;;;;;;;2.90;2.30;;;;;;;-1.29;81.21;98073.30;105141;1258;61064;-27
2024/01/05 09:42:04;;;;;;;3.50;2.40;;;;;;;-1.15;80.38;98080.61;105362;1260;61062;-27
2024/01/05 09:44:31;;;;;;;5.50;2.60;;;;;;;-1.24;81.03;98092.12;105192;1258;73169;-27
2024/01/05 09:46:58;;;;;;;4.60;2.90;;;;;;;-1.34;80.92;98094.52;105208;1258;74449;-27
2024/01/05 09:49:25;;;;;;;2.50;2.10;;;;;;;-1.71;81.68;98100.13;105423;1257;72480;-27
2024/01/05 09:51:53;;;;;;;3.20;2.40;;;;;;;-1.84;81.82;98096.62;105442;1258;61276;-27
2024/01/05 09:54:20;;;;;;;4.20;2.70;;;;;;;-1.58;80.28;98090.00;105329;1263;61093;-27
2024/01/05 09:56:47;;;;;;;2.50;1.90;;;;;;;-1.40;80.20;98120.67;105647;1258;72850;-28
2024/01/05 09:59:17;;;;;;;3.40;1.90;;;;;;;-1.30;80.51;98131.90;105262;1258;74247;-27
2024/01/05 10:01:48;;;;;;;5.00;2.20;;;;;;;-1.57;81.21;98132.52;105469;1260;70543;-27
2024/01/05 10:04:15;;;;;;;2.60;2.10;;;;;;;-1.68;81.20;98135.91;105547;1257;61173;-27
2024/01/05 10:06:42;;;;;;;3.60;2.30;;;;;;;-1.37;79.95;98136.50;105638;1258;61167;-27
2024/01/05 10:09:09;;;;;;;5.50;2.60;;;;;;;-1.30;79.15;98137.87;105646;1257;74468;-27
2024/01/05 10:11:42;;;;;;;3.50;2.60;;;;;;;-1.40;78.40;98135.29;105551;1258;74378;-29
2024/01/05 10:14:12;;;;;;;5.40;3.20;;;;;;;-1.66;78.46;98141.08;105293;1258;72030;-26
2024/01/05 10:16:39;;;;;;;4.60;3.00;;;;;;;-1.82;78.59;98138.23;105610;1257;61031;-28
2024/01/05 10:19:16;;;;;;;4.00;2.60;;;;;;;-1.91;78.90;98138.83;105637;1260;61176;-28
2024/01/05 10:21:44;;;;;;;3.90;2.70;;;;;;;-1.52;78.80;98154.24;105556;1263;73209;-28
2024/01/05 10:24:19;;;;;;;4.30;3.00;;;;;;;-1.58;78.68;98148.88;105515;1263;74177;-27
2024/01/05 10:27:19;;;;;;;4.50;3.00;;;;;;;-1.45;76.62;98154.09;105208;1258;74050;-27
2024/01/05 10:29:47;;;;;;;4.20;3.20;;;;;;;-1.74;77.69;98170.02;105128;1258;61736;-27
2024/01/05 10:32:18;;;;;;;4.70;2.50;;;;;;;-2.01;79.58;98172.60;105221;1263;61163;-27
2024/01/05 10:34:46;;;;;;;4.00;3.20;;;;;;;-2.05;80.10;98179.42;105288;1258;72988;-27
2024/01/05 10:37:15;;;;;;;3.80;3.00;;;;;;;-2.02;79.65;98175.54;105502;1257;73318;-27
2024/01/05 10:39:46;;;;;;;4.70;3.20;;;;;;;-1.79;77.10;98162.60;105487;1257;73962;-27
2024/01/05 10:42:20;;;;;;;3.60;2.60;;;;;;;-1.78;77.10;98172.58;105272;1258;61244;-28
2024/01/05 10:44:54;;;;;;;;;;;;;;;-1.91;77.86;98180.67;105548;1263;61138;-28
2024/01/05 10:47:23;;;;;;;;;;;;;;;-2.15;78.03;98183.92;105438;1257;73080;-27
2024/01/05 10:49:51;;;;;;;4.60;2.90;;;;;;;-2.23;78.16;98182.71;105357;1260;74614;-28
2024/01/05 10:52:24;;;;;;;3.80;2.70;;;;;;;-1.64;77.67;98187.11;105389;1257;72465;-28
2024/01/05 10:54:52;;;;;;;4.40;3.20;;;;;;;-1.56;75.62;98183.20;105244;1255;61160;-28
2024/01/05 10:57:20;;;;;;;3.90;2.90;;;;;;;-2.04;75.68;98187.52;105361;1262;61151;-28
2024/01/05 10:59:49;;;;;;;4.00;3.00;;;;;;;-2.04;75.78;98189.21;105592;1257;73310;-27
2024/01/05 11:02:38;;;;;;;3.00;2.20;;;;;;;-2.18;75.37;98186.61;105467;1258;74407;-27
2024/01/05 11:05:10;;;;;;;3.90;2.60;;;;;;;-2.11;74.75;98182.89;105477;1263;70892;-27
2024/01/05 11:07:38;;;;;;;2.80;2.40;;;;;;;-2.33;73.94;98183.65;105436;1263;61217;-28
2024/01/05 11:10:29;;;;;;;3.30;2.10;;;;;;;-1.99;72.40;98182.55;105608;1258;61160;-28
2024/01/05 11:13:32;;;;;;;4.00;2.20;;;;;;;-1.68;71.74;98188.14;105469;1257;72025;-28
2024/01/05 11:16:11;;;;;;;1.90;1.70;;;;;;;-2.08;72.34;98193.81;105550;1257;74247;-28
2024/01/05 11:18:55;;;;;;;4.30;2.70;;;;;;;-1.90;72.63;98190.81;105425;1258;74045;-27
2024/01/05 11:21:43;;;;;;;8.20;3.50;;;;;;;-1.86;73.95;98196.96;105118;1260;61203;-28
2024/01/05 11:24:12;;;;;;;6.60;4.30;;;;;;;-1.97;73.83;98197.93;105400;1257;61112;-27
2024/01/05 11:26:44;;;;;;;7.70;3.00;;;;;;;-1.93;73.59;98195.88;105434;1258;72252;-28
2024/01/05 11:29:15;;;;;;;4.40;2.70;;;;;;;-1.59;71.77;98193.71;105605;1263;74361;-27
2024/01/05 11:31:45;;;;;;;6.00;3.80;;;;;;;-1.69;72.36;98196.88;105652;1257;72845;-28
2024/01/05 11:34:31;;;;;;;5.20;2.50;;;;;;;-1.91;72.85;98202.28;105513;1257;61748;-28
2024/01/05 11:36:59;;;;;;;3.40;2.30;;;;;;;-2.05;72.79;98204.90;105222;1261;61241;-28
2024/01/05 11:39:45;;;;;;;4.60;2.50;;;;;;;-1.98;73.11;98207.83;105469;1260;73029;-27
2024/01/05 11:42:25;;;;;;;2.90;2.50;;;;;;;-2.10;72.99;98212.10;105309;1258;74121;-28
2024/01/05 11:44:53;;;;;;;3.20;1.90;;;;;;;-2.07;72.82;98215.02;105386;1258;71413;-27
2024/01/05 11:47:39;;;;;;;3.60;2.20;;;;;;;-1.65;71.73;98221.52;105595;1257;61090;-28
2024/01/05 11:50:37;;;;;;;3.10;2.20;;;;;;;-1.40;69.94;98226.58;105439;1261;61247;-28
2024/01/05 11:53:16;;;;;;;3.30;1.90;;;;;;;-1.58;70.68;98230.92;105213;1258;73122;-28
2024/01/05 11:55:48;;;;;;;3.20;2.20;;;;;;;-1.43;70.90;98239.98;105374;1257;74300;-28
2024/01/05 11:58:38;;;;;;;5.60;2.70;;;;;;;-1.70;70.19;98236.57;105426;1257;72566;-27
2024/01/05 12:01:09;;;;;;;4.60;3.00;;;;;;;-1.99;71.71;98242.94;105459;1258;61076;-27
2024/01/05 12:03:38;;;;;;;4.20;2.40;;;;;;;-2.34;72.10;98237.09;105325;1258;61180;-27
2024/01/05 12:06:06;;;;;;;5.80;2.80;;;;;;;-2.57;73.06;98242.77;105362;1258;72837;-28
2024/01/05 12:08:38;;;;;;;7.10;4.00;;;;;;;-2.13;71.66;98243.69;105489;1258;74369;-27
2024/01/05 12:11:08;;;;;;;2.40;2.10;;;;;;;-1.81;70.71;98238.23;105596;1261;72958;-28
2024/01/05 12:13:35;;;;;;;3.00;2.10;;;;;;;-1.73;70.03;98242.65;105466;1256;61110;-27